Time;durP1;ratioP1;P1;durP2;ratioP2;P2;SDS_P1;SDS_P2;PMS_P1;PMS_P2;Temp;Humidity;BMP_temperature;BMP_pressure;BME280_temperature;BME280_humidity;BME280_pressure;Samples;Min_cycle;Max_cycle;Signal;HPM_P1;HPM_P2
2022/01/12 00:00:09;;;;;;;8.45;4.10;;;;;;;1.80;65.46;100340.25;5050288;28;20025;-40
2022/01/12 00:02:35;;;;;;;7.95;4.03;;;;;;;1.74;67.43;100345.03;5050517;28;20041;-40
2022/01/12 00:05:00;;;;;;;8.43;4.40;;;;;;;1.92;66.30;100344.41;5050378;28;20362;-40
2022/01/12 00:07:26;;;;;;;7.45;4.75;;;;;;;1.80;66.05;100356.81;5053803;28;20045;-39
2022/01/12 00:09:51;;;;;;;8.25;4.72;;;;;;;1.70;66.66;100354.16;5054249;28;20028;-40
2022/01/12 00:12:17;;;;;;;7.53;4.30;;;;;;;1.79;66.27;100355.16;5054644;28;20024;-39
2022/01/12 00:14:42;;;;;;;8.57;4.72;;;;;;;1.89;63.88;100358.66;5054989;28;20028;-39
2022/01/12 00:17:07;;;;;;;8.23;4.63;;;;;;;1.79;65.89;100359.56;5054915;28;20123;-39
2022/01/12 00:19:33;;;;;;;10.07;4.57;;;;;;;1.58;66.81;100359.59;5054770;28;20021;-39
2022/01/12 00:21:59;;;;;;;7.20;4.13;;;;;;;1.89;65.11;100360.44;5054778;28;20070;-39
2022/01/12 00:24:40;;;;;;;9.10;5.32;;;;;;;1.75;65.38;100369.50;5053283;28;20025;-39
2022/01/12 00:35:17;;;;;;;8.80;4.55;;;;;;;1.67;67.27;100366.69;5054666;28;20104;-38
2022/01/12 00:37:43;;;;;;;8.80;4.82;;;;;;;1.82;65.35;100369.81;5053407;28;20021;-38
2022/01/12 00:40:09;;;;;;;9.38;4.85;;;;;;;1.75;65.95;100369.50;5054511;28;20091;-38
2022/01/12 00:42:34;;;;;;;7.88;4.40;;;;;;;1.83;65.95;100369.69;5054347;28;20045;-38
2022/01/12 00:45:02;;;;;;;8.70;4.70;;;;;;;1.79;67.04;100373.53;5054407;28;20036;-38
2022/01/12 00:47:27;;;;;;;8.63;4.95;;;;;;;1.90;65.14;100367.34;5054255;28;20086;-38
2022/01/12 00:49:53;;;;;;;8.98;5.05;;;;;;;1.93;66.51;100370.53;5054439;28;20025;-38
2022/01/12 00:52:18;;;;;;;8.73;4.38;;;;;;;1.73;65.32;100374.91;5054212;28;20025;-38
2022/01/12 00:54:44;;;;;;;9.10;4.45;;;;;;;1.49;66.90;100367.28;5054225;28;20036;-38
2022/01/12 00:57:09;;;;;;;8.32;4.82;;;;;;;1.23;69.47;100371.28;5054079;28;20021;-38
2022/01/12 00:59:34;;;;;;;9.63;4.88;;;;;;;1.37;67.87;100370.94;5054159;28;20025;-38
2022/01/12 01:02:00;;;;;;;8.27;4.35;;;;;;;1.62;67.41;100364.47;5053913;28;20373;-38
2022/01/12 01:04:26;;;;;;;6.88;4.20;;;;;;;1.54;66.60;100369.53;5054060;28;20040;-38
2022/01/12 01:06:51;;;;;;;8.50;4.20;;;;;;;1.66;65.52;100370.28;5053793;28;20521;-38
2022/01/12 01:09:17;;;;;;;8.48;4.35;;;;;;;2.01;64.50;100369.06;5054051;28;20029;-38
2022/01/12 01:11:42;;;;;;;9.20;4.47;;;;;;;2.34;63.78;100373.16;5054033;28;20493;-39
2022/01/12 01:14:16;;;;;;;8.45;4.70;;;;;;;2.50;63.90;100375.28;5053840;28;20017;-39
2022/01/12 01:16:50;;;;;;;7.88;4.15;;;;;;;2.04;65.90;100379.31;5053541;28;20435;-39
2022/01/12 01:27:48;;;;;;;8.05;4.90;;;;;;;1.80;68.02;100383.06;5031553;28;20172;-38
2022/01/12 01:30:15;;;;;;;8.13;4.88;;;;;;;1.97;67.17;100373.75;5044249;28;20036;-38
2022/01/12 01:32:41;;;;;;;8.45;4.97;;;;;;;2.04;66.49;100376.69;5053305;28;20032;-38
2022/01/12 01:35:07;;;;;;;9.55;4.40;;;;;;;2.00;66.79;100372.63;5054000;28;20033;-37
2022/01/12 01:37:33;;;;;;;8.98;4.72;;;;;;;1.87;68.26;100376.31;5053261;28;20035;-37
2022/01/12 01:39:58;;;;;;;9.27;5.05;;;;;;;1.65;67.99;100381.75;5053613;28;20020;-38
2022/01/12 01:42:38;;;;;;;9.88;4.70;;;;;;;1.76;68.19;100382.47;5053335;28;20013;-38
2022/01/12 01:53:19;;;;;;;8.93;4.85;;;;;;;1.36;69.31;100391.09;5053079;28;20393;-38
2022/01/12 01:55:44;;;;;;;8.95;4.95;;;;;;;1.23;67.43;100384.38;5053014;28;20067;-38
2022/01/12 01:58:10;;;;;;;9.02;5.20;;;;;;;1.42;67.17;100379.25;5052864;28;20500;-38
2022/01/12 02:00:36;;;;;;;9.45;5.13;;;;;;;1.31;67.00;100387.19;5051416;28;20087;-38
2022/01/12 02:03:01;;;;;;;8.52;4.95;;;;;;;1.51;67.75;100388.16;5053037;28;20032;-38
2022/01/12 02:05:27;;;;;;;10.18;5.28;;;;;;;1.37;67.62;100394.53;5052808;28;20025;-38
2022/01/12 02:07:52;;;;;;;8.55;4.88;;;;;;;1.27;67.04;100391.03;5052733;28;20115;-38
2022/01/12 02:10:18;;;;;;;9.30;5.38;;;;;;;1.59;66.40;100398.00;5052897;28;20021;-37
2022/01/12 02:12:43;;;;;;;11.88;5.80;;;;;;;1.42;66.05;100400.25;5052133;28;20053;-38
2022/01/12 02:15:14;;;;;;;8.98;5.30;;;;;;;1.22;65.98;100408.94;5052834;28;20029;-38
2022/01/12 02:17:53;;;;;;;9.48;4.82;;;;;;;1.10;68.36;100406.34;5052424;28;20025;-38
2022/01/12 02:36:58;;;;;;;11.77;5.35;;;;;;;1.21;65.47;100423.84;5052399;28;20106;-38
2022/01/12 02:39:52;;;;;;;10.93;6.00;;;;;;;0.99;65.82;100430.03;5052188;28;20021;-38
2022/01/12 02:42:18;;;;;;;10.80;5.70;;;;;;;0.50;67.49;100433.97;5052069;28;20013;-38
2022/01/12 02:55:40;;;;;;;12.20;5.82;;;;;;;1.08;66.13;100447.59;5032200;28;20040;-38
2022/01/12 02:58:06;;;;;;;10.35;5.70;;;;;;;0.72;67.04;100447.00;5032351;28;20025;-38
2022/01/12 03:00:48;;;;;;;11.98;5.95;;;;;;;0.85;67.36;100453.88;5032071;28;20580;-38
2022/01/12 03:03:21;;;;;;;9.82;5.47;;;;;;;0.85;67.19;100451.25;5032100;28;20108;-38
2022/01/12 03:05:55;;;;;;;10.20;5.10;;;;;;;0.74;67.70;100447.72;5032086;28;20108;-39
2022/01/12 03:08:23;;;;;;;10.38;6.13;;;;;;;0.89;67.32;100456.13;5031718;28;20057;-38
2022/01/12 03:10:49;;;;;;;10.07;5.63;;;;;;;1.04;66.16;100456.66;5031738;28;20456;-39
2022/01/12 03:13:14;;;;;;;11.00;5.82;;;;;;;1.04;66.24;100455.84;5031877;28;20481;-39
2022/01/12 03:15:41;;;;;;;12.52;6.32;;;;;;;1.16;67.52;100466.19;5031871;28;20393;-38
2022/01/12 03:18:07;;;;;;;12.05;6.43;;;;;;;1.12;66.42;100472.63;5031684;28;20119;-38
2022/01/12 03:20:33;;;;;;;9.52;5.57;;;;;;;1.15;67.18;100464.50;5031480;28;20652;-38
2022/01/12 03:22:59;;;;;;;11.10;5.70;;;;;;;1.13;66.56;100468.22;5032119;28;20028;-40
2022/01/12 03:25:24;;;;;;;10.02;5.20;;;;;;;0.68;66.83;100463.09;5031590;28;20021;-39
2022/01/12 03:27:50;;;;;;;10.68;5.53;;;;;;;0.61;66.76;100470.63;5031797;28;20036;-38
2022/01/12 03:30:16;;;;;;;12.00;6.07;;;;;;;0.78;66.39;100469.25;5063250;28;20041;-38
2022/01/12 03:32:49;;;;;;;13.77;6.25;;;;;;;0.91;66.18;100479.59;5031369;28;20106;-39
2022/01/12 03:35:36;;;;;;;11.73;5.53;;;;;;;0.96;66.30;100473.03;5031633;28;20474;-39
2022/01/12 03:38:20;;;;;;;10.98;5.88;;;;;;;0.92;66.45;100479.47;5031265;28;20369;-39
2022/01/12 03:40:49;;;;;;;12.43;5.93;;;;;;;0.88;66.63;100474.63;5030573;28;20049;-39
2022/01/12 03:43:16;;;;;;;12.57;6.20;;;;;;;1.09;64.83;100483.34;5031509;28;20485;-39
2022/01/12 03:45:41;;;;;;;10.30;5.97;;;;;;;1.25;66.20;100487.34;5030926;28;20477;-39
2022/01/12 03:48:07;;;;;;;10.48;6.00;;;;;;;0.98;66.02;100480.78;5036629;28;20016;-40
2022/01/12 03:50:32;;;;;;;10.85;5.90;;;;;;;0.89;67.42;100487.56;5050046;28;20025;-39
2022/01/12 03:52:58;;;;;;;10.70;5.90;;;;;;;1.03;66.18;100483.00;5050750;28;20025;-39
2022/01/12 03:55:23;;;;;;;11.05;5.43;;;;;;;0.92;66.86;100492.56;5051177;28;20108;-39
2022/01/12 03:57:49;;;;;;;11.32;5.72;;;;;;;0.76;67.55;100498.22;5050903;28;20472;-39
2022/01/12 04:00:14;;;;;;;12.15;6.15;;;;;;;0.65;67.69;100494.75;5050939;28;20024;-45
2022/01/12 04:02:40;;;;;;;10.02;5.78;;;;;;;0.81;67.79;100499.63;5050501;28;20083;-41
2022/01/12 04:05:24;;;;;;;12.20;6.53;;;;;;;0.71;68.31;100499.53;5050757;28;20028;-40
2022/01/12 04:10:34;;;;;;;9.90;5.68;;;;;;;0.44;68.31;100510.38;5050183;28;20164;-52
2022/01/12 04:13:00;;;;;;;10.60;5.88;;;;;;;0.81;67.76;100516.19;5050610;28;20033;-50
2022/01/12 04:15:26;;;;;;;20.08;8.27;;;;;;;0.49;67.57;100529.19;5050902;28;20510;-53
2022/01/12 04:17:51;;;;;;;10.35;5.60;;;;;;;0.57;67.41;100529.41;5050051;28;20460;-50
2022/01/12 04:20:17;;;;;;;12.13;6.97;;;;;;;0.42;67.29;100528.00;5050656;28;20433;-50
2022/01/12 04:25:26;;;;;;;10.68;6.05;;;;;;;0.98;66.20;100530.56;5050942;28;20040;-52
2022/01/12 04:27:52;;;;;;;11.35;5.40;;;;;;;0.85;65.73;100538.56;5050791;28;20100;-50
2022/01/12 04:30:18;;;;;;;11.35;5.80;;;;;;;0.60;67.39;100551.94;5050554;28;20044;-50
2022/01/12 04:32:44;;;;;;;13.68;6.88;;;;;;;1.75;83.41;100553.19;5050598;28;20127;-52
2022/01/12 04:35:10;;;;;;;10.02;5.47;;;;;;;2.79;75.18;100559.31;5050683;28;20025;-49
2022/01/12 04:37:36;;;;;;;9.43;5.28;;;;;;;3.77;65.29;100556.81;5050583;28;20358;-50
2022/01/12 04:40:01;;;;;;;9.55;5.07;;;;;;;4.22;73.77;100566.75;5050104;28;20707;-52
2022/01/12 04:42:27;;;;;;;9.65;5.07;;;;;;;4.51;65.11;100566.66;5050204;28;20033;-50
2022/01/12 04:45:00;;;;;;;9.13;5.30;;;;;;;3.36;56.19;100564.84;5050287;28;20025;-51
2022/01/12 04:47:47;;;;;;;9.48;5.72;;;;;;;2.58;59.81;100569.88;5049646;28;20083;-52
2022/01/12 04:50:12;;;;;;;11.65;5.43;;;;;;;1.39;61.61;100578.88;5050004;28;20066;-51
2022/01/12 04:52:38;;;;;;;10.32;5.82;;;;;;;1.58;63.40;100574.75;5051613;28;20534;-52
2022/01/12 04:55:03;;;;;;;10.43;5.88;;;;;;;1.49;63.63;100578.97;5053617;28;20028;-51
2022/01/12 04:57:29;;;;;;;10.68;5.55;;;;;;;1.05;64.05;100588.56;5053179;28;20496;-56
2022/01/12 05:00:05;;;;;;;12.77;5.97;;;;;;;0.92;68.63;100591.34;5053192;28;20400;-49
2022/01/12 05:08:13;;;;;;;12.05;5.68;;;;;;;0.88;71.01;100600.41;5052571;28;20187;-48
2022/01/12 05:13:27;;;;;;;10.70;5.72;;;;;;;1.61;62.42;100609.44;5052933;28;20039;-52
2022/01/12 05:15:52;;;;;;;11.15;5.82;;;;;;;0.97;64.93;100611.00;5050895;28;20475;-51
2022/01/12 05:18:18;;;;;;;11.35;5.95;;;;;;;0.80;65.64;100610.63;5048940;28;20029;-51
2022/01/12 05:20:44;;;;;;;11.40;5.80;;;;;;;0.62;65.53;100608.50;5048929;28;20028;-53
2022/01/12 05:23:10;;;;;;;10.25;5.60;;;;;;;1.03;64.51;100620.19;5049099;28;20494;-49
2022/01/12 05:25:35;;;;;;;11.30;6.35;;;;;;;0.97;64.83;100618.88;5048604;28;20028;-51
2022/01/12 05:28:01;;;;;;;10.55;6.10;;;;;;;0.64;65.81;100626.72;5048121;28;20021;-49
2022/01/12 05:30:26;;;;;;;11.55;6.13;;;;;;;0.34;65.60;100622.84;5048483;28;20040;-49
2022/01/12 05:32:52;;;;;;;10.57;5.63;;;;;;;0.58;63.70;100634.09;5048419;28;20032;-50
2022/01/12 05:35:18;;;;;;;12.95;6.20;;;;;;;0.53;64.77;100638.00;5048073;28;20029;-49
2022/01/12 05:37:44;;;;;;;11.07;5.82;;;;;;;0.58;64.13;100636.69;5048919;28;20131;-52
2022/01/12 05:40:11;;;;;;;10.68;5.43;;;;;;;0.28;63.99;100641.66;5050599;28;20102;-49
2022/01/12 05:42:37;;;;;;;12.18;6.03;;;;;;;0.12;66.15;100641.97;5053393;28;20043;-52
2022/01/12 05:45:03;;;;;;;11.40;6.00;;;;;;;0.69;63.86;100646.38;5051995;28;20051;-49
2022/01/12 05:47:38;;;;;;;9.60;5.40;;;;;;;0.86;62.79;100652.13;5051910;28;20100;-51
2022/01/12 05:50:03;;;;;;;10.30;5.80;;;;;;;0.46;65.39;100653.38;5052423;28;20031;-49
2022/01/12 05:52:29;;;;;;;10.30;6.00;;;;;;;0.47;64.17;100662.03;5052003;28;20025;-48
2022/01/12 05:54:54;;;;;;;11.00;6.18;;;;;;;0.78;64.46;100671.88;5052317;28;20082;-52
2022/01/12 05:57:20;;;;;;;11.55;5.88;;;;;;;0.66;63.14;100671.97;5051867;28;20102;-54
2022/01/12 05:59:45;;;;;;;10.10;5.75;;;;;;;0.65;63.28;100676.38;5051301;28;20495;-50
2022/01/12 06:02:11;;;;;;;9.65;5.10;;;;;;;0.37;64.60;100675.81;5051809;28;20025;-50
2022/01/12 06:04:36;;;;;;;11.38;6.18;;;;;;;0.44;64.64;100680.59;5051065;28;20024;-47
2022/01/12 06:07:02;;;;;;;9.98;5.57;;;;;;;0.69;62.84;100692.72;5051816;28;20055;-50
2022/01/12 06:09:27;;;;;;;10.30;5.68;;;;;;;0.64;62.67;100695.66;5052419;28;20404;-54
2022/01/12 06:11:53;;;;;;;11.35;6.30;;;;;;;0.66;62.51;100699.00;5051830;28;20025;-51
2022/01/12 06:14:20;;;;;;;10.60;5.90;;;;;;;0.49;64.13;100708.13;5051749;28;20040;-52
2022/01/12 06:16:46;;;;;;;9.98;5.88;;;;;;;0.33;63.36;100713.66;5052501;28;20041;-51
2022/01/12 06:19:11;;;;;;;10.85;5.43;;;;;;;0.24;63.19;100710.91;5051995;28;20032;-52
2022/01/12 06:21:36;;;;;;;11.23;5.85;;;;;;;0.43;63.47;100716.44;5051819;28;20031;-51
2022/01/12 06:24:02;;;;;;;9.75;5.38;;;;;;;0.32;63.94;100719.84;5052345;28;20021;-52
2022/01/12 06:26:27;;;;;;;10.23;5.50;;;;;;;0.26;61.90;100722.09;5051975;28;20094;-52
2022/01/12 06:29:15;;;;;;;9.02;5.57;;;;;;;0.19;62.46;100730.41;5051923;28;20028;-52
2022/01/12 06:31:40;;;;;;;10.88;5.90;;;;;;;0.23;61.72;100736.25;5051706;28;20037;-51
2022/01/12 06:34:06;;;;;;;10.10;5.40;;;;;;;0.16;62.22;100737.66;5052054;28;20041;-51
2022/01/12 06:36:31;;;;;;;11.52;5.75;;;;;;;0.29;61.32;100746.28;5052009;28;20455;-52
2022/01/12 06:38:57;;;;;;;12.48;5.70;;;;;;;0.12;62.45;100759.75;5051579;28;20350;-51
2022/01/12 06:41:22;;;;;;;9.48;4.97;;;;;;;0.25;62.79;100751.81;5051715;28;20025;-52
2022/01/12 06:43:48;;;;;;;10.52;5.38;;;;;;;0.38;62.77;100755.22;5033450;28;20029;-52
2022/01/12 06:46:22;;;;;;;12.82;5.85;;;;;;;0.39;63.35;100759.53;5051508;28;20040;-49
2022/01/12 06:48:47;;;;;;;11.73;5.88;;;;;;;0.25;62.77;100764.91;5051620;28;20138;-51
2022/01/12 06:51:12;;;;;;;12.13;5.90;;;;;;;-0.03;63.36;100767.75;5051366;28;20400;-52
2022/01/12 06:53:38;;;;;;;9.45;5.25;;;;;;;0.33;62.31;100781.75;5051576;28;20025;-52
2022/01/12 06:56:04;;;;;;;11.65;5.95;;;;;;;0.21;62.39;100779.19;5051403;28;20024;-50
2022/01/12 06:58:29;;;;;;;10.45;5.68;;;;;;;-0.02;62.87;100790.38;5051085;28;20025;-51
2022/01/12 07:00:55;;;;;;;11.50;5.30;;;;;;;-0.26;64.36;100786.88;5049861;28;20028;-52
2022/01/12 07:03:20;;;;;;;11.77;5.32;;;;;;;-0.12;63.86;100801.59;5051229;28;20036;-52
2022/01/12 07:05:46;;;;;;;10.05;5.38;;;;;;;0.06;62.91;100786.34;5051100;28;20073;-52
2022/01/12 07:08:12;;;;;;;10.23;5.22;;;;;;;-0.07;62.32;100791.66;5050974;28;20048;-52
2022/01/12 07:10:37;;;;;;;9.20;5.05;;;;;;;0.00;62.34;100790.28;5050560;28;20021;-52
2022/01/12 07:13:03;;;;;;;8.57;4.50;;;;;;;-0.10;61.97;100797.09;5051531;28;20044;-51
2022/01/12 07:15:30;;;;;;;11.27;5.20;;;;;;;0.15;61.71;100798.78;5050738;28;20378;-50
2022/01/12 07:18:01;;;;;;;10.82;5.22;;;;;;;0.25;61.36;100796.34;5033128;28;20124;-53
2022/01/12 07:20:26;;;;;;;9.52;5.32;;;;;;;0.53;60.46;100797.78;5051281;28;20087;-52
2022/01/12 07:22:52;;;;;;;8.00;4.75;;;;;;;0.16;59.89;100808.31;5050927;28;20021;-55
2022/01/12 07:25:18;;;;;;;9.63;5.35;;;;;;;-0.06;61.35;100815.09;5050781;28;20032;-53
2022/01/12 07:27:43;;;;;;;11.25;5.43;;;;;;;0.27;60.65;100813.63;5050866;28;20024;-52
2022/01/12 07:30:09;;;;;;;9.02;5.03;;;;;;;0.24;59.78;100816.47;5050703;28;20086;-52
2022/01/12 07:32:35;;;;;;;10.02;5.53;;;;;;;0.10;61.09;100824.47;5050647;28;20033;-51
2022/01/12 07:35:00;;;;;;;8.90;5.10;;;;;;;0.12;61.65;100827.81;5051125;28;20036;-52
2022/01/12 07:37:26;;;;;;;8.50;5.00;;;;;;;0.16;61.75;100829.28;5050629;28;20036;-51
2022/01/12 07:39:51;;;;;;;10.63;5.80;;;;;;;0.23;61.40;100832.28;5050057;28;20028;-50
2022/01/12 07:42:16;;;;;;;10.32;4.90;;;;;;;0.13;60.60;100824.25;5050863;28;20361;-51
2022/01/12 07:44:42;;;;;;;11.35;5.45;;;;;;;0.06;61.38;100830.84;5050570;28;20105;-51
2022/01/12 07:47:07;;;;;;;9.80;5.18;;;;;;;0.17;60.43;100833.53;5050597;28;20033;-51
2022/01/12 07:49:34;;;;;;;10.10;4.97;;;;;;;0.36;60.11;100841.78;5050248;28;20040;-53
2022/01/12 07:52:00;;;;;;;10.40;5.22;;;;;;;0.15;60.18;100844.16;5050262;28;20033;-51
2022/01/12 07:54:26;;;;;;;10.60;4.68;;;;;;;0.00;61.80;100840.00;5050046;28;20411;-51
2022/01/12 07:56:51;;;;;;;10.52;5.15;;;;;;;0.21;60.66;100844.63;5050472;28;20116;-50
2022/01/12 07:59:16;;;;;;;9.23;4.40;;;;;;;0.23;60.35;100848.84;5050405;28;20021;-52
2022/01/12 08:01:42;;;;;;;10.38;5.07;;;;;;;0.21;59.77;100863.81;5050402;28;20021;-50
2022/01/12 08:04:07;;;;;;;11.30;5.28;;;;;;;0.26;59.73;100860.88;5048956;28;20032;-52
2022/01/12 08:06:33;;;;;;;8.77;4.88;;;;;;;0.11;59.66;100874.09;5050392;28;20041;-51
2022/01/12 08:08:58;;;;;;;9.55;4.65;;;;;;;0.22;59.07;100873.34;5050169;28;20036;-49
2022/01/12 08:11:24;;;;;;;10.05;5.43;;;;;;;0.48;59.16;100876.72;5050290;28;20021;-52
2022/01/12 08:13:50;;;;;;;10.02;5.15;;;;;;;0.47;58.58;100876.81;5050382;28;20404;-51
2022/01/12 08:16:16;;;;;;;10.50;4.80;;;;;;;0.25;58.92;100885.38;5050007;28;20115;-50
2022/01/12 08:18:41;;;;;;;10.13;5.22;;;;;;;0.16;59.04;100882.47;5048895;28;20494;-49
2022/01/12 08:21:07;;;;;;;10.35;5.03;;;;;;;0.15;59.95;100877.31;5050182;28;20021;-50
2022/01/12 08:23:33;;;;;;;10.82;4.97;;;;;;;0.41;59.88;100878.09;5050123;28;20017;-51
2022/01/12 08:25:59;;;;;;;10.75;5.22;;;;;;;0.24;59.85;100887.16;5050194;28;20350;-51
2022/01/12 08:28:24;;;;;;;10.57;5.07;;;;;;;0.30;59.78;100889.31;5053872;28;20131;-50
2022/01/12 08:30:50;;;;;;;10.32;5.20;;;;;;;0.46;58.13;100889.09;5053572;28;20025;-51
2022/01/12 08:33:16;;;;;;;10.32;5.45;;;;;;;0.46;58.44;100883.84;5053879;28;20025;-51
2022/01/12 08:35:42;;;;;;;10.23;5.38;;;;;;;0.63;58.58;100893.13;5054205;28;20047;-51
2022/01/12 08:38:07;;;;;;;10.45;5.07;;;;;;;0.64;57.98;100891.31;5053788;28;20449;-52
2022/01/12 08:40:33;;;;;;;13.60;5.68;;;;;;;0.51;57.67;100899.22;5053904;28;20024;-52
2022/01/12 08:42:58;;;;;;;10.38;5.22;;;;;;;0.61;59.00;100895.00;5053671;28;20028;-52
2022/01/12 08:45:24;;;;;;;10.80;5.43;;;;;;;0.58;58.67;100903.91;5053593;28;20131;-53
2022/01/12 08:47:50;;;;;;;10.48;5.50;;;;;;;0.56;57.85;100904.97;5053375;28;20025;-50
2022/01/12 08:50:15;;;;;;;10.20;5.60;;;;;;;0.33;58.54;100906.63;5053955;28;20025;-55
2022/01/12 08:52:46;;;;;;;8.38;4.95;;;;;;;0.45;58.47;100902.28;5053256;28;20382;-53
2022/01/12 08:55:13;;;;;;;10.35;5.22;;;;;;;0.37;58.23;100906.28;5053025;28;20408;-51
2022/01/12 08:57:38;;;;;;;12.32;7.45;;;;;;;0.51;59.46;100899.22;5052892;28;20025;-51
2022/01/12 09:00:04;;;;;;;10.50;5.80;;;;;;;0.49;58.00;100901.94;5052589;28;20086;-52
2022/01/12 09:02:30;;;;;;;9.90;5.90;;;;;;;0.79;57.40;100908.56;5053521;28;20044;-54
2022/01/12 09:04:55;;;;;;;13.25;5.40;;;;;;;0.60;57.75;100916.06;5053389;28;20485;-50
2022/01/12 09:07:21;;;;;;;12.30;5.45;;;;;;;0.76;57.71;100909.63;5053170;28;20417;-53
2022/01/12 09:09:46;;;;;;;11.18;5.22;;;;;;;0.63;58.31;100903.59;5053311;28;20025;-51
2022/01/12 09:12:12;;;;;;;10.02;4.88;;;;;;;0.76;57.77;100909.63;5052966;28;20025;-56
2022/01/12 09:14:37;;;;;;;9.00;4.25;;;;;;;0.30;58.23;100910.28;5052878;28;20025;-52
2022/01/12 09:17:03;;;;;;;10.32;4.82;;;;;;;0.76;56.95;100906.16;5052694;28;20032;-52
2022/01/12 09:19:29;;;;;;;12.57;5.80;;;;;;;0.75;57.03;100907.09;5053219;28;20412;-52
2022/01/12 09:21:56;;;;;;;9.23;5.65;;;;;;;0.88;56.96;100902.66;5053078;28;20035;-52
2022/01/12 09:24:21;;;;;;;10.38;5.47;;;;;;;0.71;56.92;100913.53;5052859;28;20031;-51
2022/01/12 09:26:48;;;;;;;10.13;5.20;;;;;;;0.84;57.68;100908.19;5053099;28;20017;-55
2022/01/12 09:29:13;;;;;;;10.00;5.00;;;;;;;0.84;56.00;100909.06;5052915;28;20017;-53
2022/01/12 09:31:39;;;;;;;10.93;5.30;;;;;;;0.85;56.18;100915.13;5052680;28;20029;-51
2022/01/12 09:34:05;;;;;;;8.82;5.10;;;;;;;0.70;56.94;100911.84;5052994;28;20025;-51
2022/01/12 09:36:31;;;;;;;12.60;5.32;;;;;;;0.69;57.14;100905.75;5052938;28;20029;-49
2022/01/12 09:38:57;;;;;;;9.35;4.82;;;;;;;0.71;57.58;100906.50;5052718;28;20037;-52
2022/01/12 09:41:25;;;;;;;10.82;5.50;;;;;;;0.95;57.44;100906.50;5051241;28;20028;-51
2022/01/12 09:43:51;;;;;;;8.90;5.18;;;;;;;0.78;55.63;100902.47;5052495;28;20453;-52
2022/01/12 09:46:16;;;;;;;8.05;4.53;;;;;;;0.76;55.93;100900.91;5052278;28;20121;-49
2022/01/12 09:48:42;;;;;;;9.65;5.10;;;;;;;0.86;56.09;100901.09;5051859;28;20040;-52
2022/01/12 09:51:07;;;;;;;7.70;4.07;;;;;;;0.86;56.52;100901.91;5051875;28;20029;-52
2022/01/12 09:53:34;;;;;;;11.93;5.43;;;;;;;0.96;56.29;100904.69;5052348;28;20036;-52
2022/01/12 09:56:00;;;;;;;11.90;5.22;;;;;;;1.10;57.26;100899.25;5052053;28;20057;-54
2022/01/12 09:58:35;;;;;;;12.52;4.88;;;;;;;1.03;57.36;100895.44;5052079;28;20461;-52
2022/01/12 10:01:01;;;;;;;8.65;5.20;;;;;;;0.91;57.21;100893.72;5051919;28;20025;-52
2022/01/12 10:03:27;;;;;;;9.02;5.18;;;;;;;1.11;56.46;100903.56;5051941;28;20033;-53
2022/01/12 10:05:52;;;;;;;8.98;4.60;;;;;;;1.14;55.40;100897.25;5052463;28;20165;-53
2022/01/12 10:08:18;;;;;;;13.02;5.68;;;;;;;0.95;57.26;100895.16;5052131;28;20080;-54
2022/01/12 10:11:00;;;;;;;10.48;5.05;;;;;;;1.10;55.70;100898.44;5052266;28;20547;-54
2022/01/12 10:13:25;;;;;;;12.52;4.78;;;;;;;1.30;54.67;100889.09;5052050;28;20500;-53
2022/01/12 10:15:52;;;;;;;10.07;4.80;;;;;;;1.11;54.84;100887.00;5052100;28;20029;-54
2022/01/12 10:18:18;;;;;;;9.93;5.28;;;;;;;1.13;55.03;100883.31;5052093;28;20017;-53
2022/01/12 10:20:44;;;;;;;8.88;4.65;;;;;;;1.29;54.47;100882.16;5051752;28;20073;-52
2022/01/12 10:23:11;;;;;;;9.55;5.28;;;;;;;1.14;55.03;100879.75;5051948;28;20074;-52
2022/01/12 10:25:37;;;;;;;10.13;4.93;;;;;;;1.14;56.98;100879.75;5052294;28;20025;-54
2022/01/12 10:28:15;;;;;;;8.40;4.93;;;;;;;1.20;55.42;100885.47;5051467;28;20430;-54
2022/01/12 10:30:52;;;;;;;10.88;5.07;;;;;;;1.13;55.87;100878.06;5051487;28;20033;-52
2022/01/12 10:33:17;;;;;;;8.77;4.82;;;;;;;1.24;56.27;100881.66;5050850;28;20039;-53
2022/01/12 10:35:43;;;;;;;10.40;4.70;;;;;;;1.25;55.21;100880.72;5051700;28;20451;-53
2022/01/12 10:38:13;;;;;;;11.60;5.55;;;;;;;1.18;57.91;100882.94;5051658;28;20021;-52
2022/01/12 10:40:52;;;;;;;9.50;5.00;;;;;;;1.20;57.78;100878.47;5051720;28;20393;-53
2022/01/12 10:43:41;;;;;;;10.60;5.07;;;;;;;1.11;55.95;100893.06;5051499;28;20025;-50
2022/01/12 10:46:14;;;;;;;9.18;4.80;;;;;;;1.37;55.40;100885.03;5051588;28;20039;-52
2022/01/12 10:48:43;;;;;;;10.50;5.13;;;;;;;1.08;57.21;100895.91;5051381;28;20472;-51
2022/01/12 10:51:09;;;;;;;13.73;4.82;;;;;;;1.08;58.07;100897.72;5050759;28;20040;-54
2022/01/12 10:53:35;;;;;;;10.23;5.35;;;;;;;1.21;57.90;100890.59;5051159;28;20025;-51
2022/01/12 10:56:10;;;;;;;10.63;5.20;;;;;;;1.21;58.69;100895.00;5049890;28;20459;-51
2022/01/12 10:58:37;;;;;;;9.52;5.50;;;;;;;1.38;56.12;100894.59;5051069;28;20031;-51
2022/01/12 11:01:03;;;;;;;11.35;5.57;;;;;;;1.62;57.17;100904.16;5050673;28;20212;-53
2022/01/12 11:03:29;;;;;;;11.65;5.80;;;;;;;1.53;56.13;100906.53;5050938;28;20059;-53
2022/01/12 11:05:55;;;;;;;9.07;5.22;;;;;;;1.39;55.54;100896.25;5050992;28;20131;-51
2022/01/12 11:08:23;;;;;;;10.70;4.90;;;;;;;1.38;56.51;100897.22;5050453;28;20108;-52
2022/01/12 11:10:49;;;;;;;9.38;5.07;;;;;;;1.40;54.81;100899.72;5048856;28;20273;-53
2022/01/12 11:13:14;;;;;;;10.50;5.32;;;;;;;1.42;55.34;100897.81;5032563;28;20029;-53
2022/01/12 11:15:40;;;;;;;9.85;5.18;;;;;;;1.38;55.66;100891.97;5050979;28;20392;-54
2022/01/12 11:18:05;;;;;;;13.70;6.68;;;;;;;1.17;58.52;100897.03;5032653;28;20020;-54
2022/01/12 11:20:31;;;;;;;10.05;5.03;;;;;;;0.91;58.83;100880.59;5050502;28;20017;-54
2022/01/12 11:23:12;;;;;;;10.70;5.10;;;;;;;0.99;58.69;100886.13;5049209;28;20092;-53
2022/01/12 11:25:43;;;;;;;14.00;6.20;;;;;;;1.04;58.29;100888.41;5050944;28;20063;-53
2022/01/12 11:28:12;;;;;;;16.92;7.38;;;;;;;1.11;58.43;100887.84;5050706;28;20020;-55
2022/01/12 11:30:40;;;;;;;12.57;6.50;;;;;;;1.52;59.19;100888.28;5050735;28;20047;-53
2022/01/12 11:33:08;;;;;;;15.40;6.72;;;;;;;1.44;58.64;100890.66;5048862;28;20155;-54
2022/01/12 11:35:37;;;;;;;13.02;6.57;;;;;;;1.48;57.86;100884.22;5050664;28;20017;-54
2022/01/12 11:38:03;;;;;;;10.95;6.28;;;;;;;1.70;56.83;100886.06;5050506;28;20027;-53
2022/01/12 11:40:37;;;;;;;10.90;6.03;;;;;;;1.58;58.56;100884.34;5050311;28;20021;-53
2022/01/12 11:43:03;;;;;;;10.02;5.70;;;;;;;1.54;57.11;100883.75;5050475;28;20024;-53
2022/01/12 11:45:28;;;;;;;10.50;5.50;;;;;;;1.52;56.66;100883.03;5050695;28;20025;-52
2022/01/12 11:47:53;;;;;;;9.07;4.78;;;;;;;1.72;56.63;100884.16;5048583;28;20021;-54
2022/01/12 11:50:19;;;;;;;11.82;5.10;;;;;;;1.52;57.74;100891.75;5049246;28;20025;-53
2022/01/12 11:52:44;;;;;;;10.93;5.03;;;;;;;1.64;55.99;100886.50;5049969;28;20028;-52
2022/01/12 11:55:11;;;;;;;10.05;4.78;;;;;;;1.49;55.57;100881.50;5050654;28;20036;-53
2022/01/12 11:57:38;;;;;;;10.73;5.18;;;;;;;1.52;56.29;100890.91;5050410;28;20074;-53
2022/01/12 12:00:20;;;;;;;9.25;4.97;;;;;;;1.79;55.76;100887.13;5050710;28;20019;-54
2022/01/12 12:02:51;;;;;;;8.68;4.70;;;;;;;1.79;57.12;100895.00;5052954;28;20025;-53
2022/01/12 12:05:21;;;;;;;12.10;5.32;;;;;;;1.98;56.64;100894.41;5054330;28;20095;-56
2022/01/12 12:08:02;;;;;;;12.50;5.70;;;;;;;1.62;58.79;100891.91;5054460;28;20060;-53
2022/01/12 12:10:29;;;;;;;10.52;5.40;;;;;;;1.32;58.57;100885.38;5054653;28;20027;-53
2022/01/12 12:12:56;;;;;;;10.75;5.57;;;;;;;1.18;59.53;100877.72;5054168;28;20536;-52
2022/01/12 12:15:23;;;;;;;11.65;6.03;;;;;;;1.56;59.25;100890.56;5054513;28;20416;-54
2022/01/12 12:17:49;;;;;;;9.77;5.60;;;;;;;1.55;61.29;100886.25;5054173;28;20096;-54
2022/01/12 12:20:16;;;;;;;11.80;6.03;;;;;;;1.65;59.80;100888.19;5053000;28;20029;-54
2022/01/12 12:22:43;;;;;;;9.48;5.50;;;;;;;1.61;59.40;100886.75;5054288;28;20025;-54
2022/01/12 12:25:15;;;;;;;10.27;5.40;;;;;;;1.77;58.55;100895.09;5054058;28;20104;-54
2022/01/12 12:27:46;;;;;;;12.88;6.30;;;;;;;1.64;59.73;100894.38;5054208;28;20385;-54
2022/01/12 12:30:15;;;;;;;11.70;5.43;;;;;;;2.02;59.69;100896.69;5054180;28;20029;-54
2022/01/12 12:32:43;;;;;;;11.32;5.70;;;;;;;1.73;58.42;100896.28;5053859;28;20051;-54
2022/01/12 12:35:38;;;;;;;8.95;5.20;;;;;;;1.66;59.32;100901.19;5053949;28;20029;-55